Baiting Hollow, New York
Current Conditions -  °F | °C
As of 6:17 AM on Monday 22 Dec 2014 (Local Time) from KFOK Reporting Station
Overcast Overcast  
Wind Chill: 32°   Ceiling: 4500
Heat Index: 37°   Visibility: 7mi
Dew Point: 35°   Wind: 7mph
Humidity: 93%   Direction: 10°N
Pressure: 30.33"   Gusts: NA
Location:  40.9282°N, 72.7588°W
Report Text: KFOK 221117Z AUTO 01006KT 7SM SCT021 SCT037 OVC045 03/02 A3033 RMK AO2 RAE15 P0000 T00280017 TSNO
Loading
Personal Weather Stations






























Interactive Weather Map New forecast layout! Learn more

10-Day Weather Forecast

Advertisements
Track Severe Weather on mobile